Time;durP1;ratioP1;P1;durP2;ratioP2;P2;SDS_P1;SDS_P2;PMS_P1;PMS_P2;Temp;Humidity;BMP_temperature;BMP_pressure;BME280_temperature;BME280_humidity;BME280_pressure;Samples;Min_cycle;Max_cycle;Signal;HPM_P1;HPM_P2
2022/08/11 00:00:38;;;;;;;4.75;2.92;;;16.50;77.60;;;;;;5038845;28;20172;-86
2022/08/11 00:03:06;;;;;;;4.13;2.85;;;16.50;77.50;;;;;;5056678;28;20199;-86
2022/08/11 00:05:41;;;;;;;7.30;3.05;;;16.40;77.60;;;;;;5038403;28;20621;-86
2022/08/11 00:08:09;;;;;;;6.45;2.97;;;16.40;77.60;;;;;;5038562;28;20160;-86
2022/08/11 00:10:37;;;;;;;6.05;3.08;;;16.30;77.60;;;;;;5038415;28;20176;-86
2022/08/11 00:13:06;;;;;;;5.43;3.13;;;16.30;77.60;;;;;;5038306;28;20222;-86
2022/08/11 00:15:41;;;;;;;5.43;3.22;;;16.30;77.60;;;;;;5038453;28;20196;-87
2022/08/11 00:18:09;;;;;;;7.28;3.10;;;16.20;79.20;;;;;;5038401;28;20191;-88
2022/08/11 00:20:38;;;;;;;5.80;3.00;;;16.20;79.40;;;;;;5038627;28;20183;-87
2022/08/11 00:23:10;;;;;;;4.60;2.90;;;16.20;79.30;;;;;;5038393;28;20204;-87
2022/08/11 00:25:48;;;;;;;3.67;2.88;;;16.20;79.00;;;;;;5037854;28;20211;-86
2022/08/11 00:28:32;;;;;;;7.60;2.85;;;16.20;78.80;;;;;;5038161;28;20517;-86
2022/08/11 00:31:02;;;;;;;3.97;2.80;;;16.20;78.70;;;;;;5055977;28;20156;-86
2022/08/11 00:33:41;;;;;;;5.80;3.00;;;16.20;78.50;;;;;;5037959;28;20214;-87
2022/08/11 00:36:09;;;;;;;4.35;3.30;;;16.20;78.50;;;;;;5037589;28;20203;-87
2022/08/11 00:38:38;;;;;;;7.40;2.78;;;16.20;78.50;;;;;;5037681;28;20188;-87
2022/08/11 00:41:16;;;;;;;5.53;3.08;;;16.10;78.60;;;;;;5036553;28;20180;-87
2022/08/11 00:43:55;;;;;;;4.60;2.63;;;16.00;78.60;;;;;;5037877;28;20291;-86
2022/08/11 00:46:24;;;;;;;10.43;2.80;;;16.00;78.50;;;;;;5055295;28;20191;-86
2022/08/11 00:49:15;;;;;;;8.82;3.38;;;15.90;78.40;;;;;;5055269;28;20211;-88
2022/08/11 00:52:12;;;;;;;5.75;2.72;;;15.90;78.50;;;;;;5055588;28;20157;-88
2022/08/11 00:54:59;;;;;;;4.22;3.05;;;15.90;78.60;;;;;;5030102;28;20598;-88
2022/08/11 00:57:55;;;;;;;3.42;3.10;;;15.90;78.70;;;;;;5037331;28;20168;-88
2022/08/11 01:00:24;;;;;;;6.85;3.80;;;15.90;78.60;;;;;;5037420;28;20199;-87
2022/08/11 01:03:11;;;;;;;5.03;3.30;;;15.80;78.60;;;;;;5038872;28;20544;-91
2022/08/11 01:06:32;;;;;;;5.80;4.00;;;15.80;78.70;;;;;;5039176;28;20191;-90
2022/08/11 01:09:39;;;;;;;5.35;3.08;;;15.80;78.70;;;;;;5040898;28;20176;-90
2022/08/11 01:12:20;;;;;;;6.35;3.33;;;15.70;79.20;;;;;;5038656;28;20179;-90
2022/08/11 01:15:18;;;;;;;9.82;3.53;;;15.60;79.70;;;;;;5037793;28;20196;-90
2022/08/11 01:18:13;;;;;;;6.28;3.45;;;15.50;80.00;;;;;;5055186;28;20156;-90
2022/08/11 01:21:00;;;;;;;5.32;3.42;;;15.60;79.70;;;;;;5036747;28;20160;-89
2022/08/11 01:23:35;;;;;;;7.60;4.07;;;15.60;79.50;;;;;;5056032;28;20192;-89
2022/08/11 01:26:26;;;;;;;5.43;3.22;;;15.60;79.40;;;;;;5036367;28;20207;-90
2022/08/11 01:29:25;;;;;;;4.28;3.50;;;15.60;79.40;;;;;;5036580;28;20179;-89
2022/08/11 01:32:28;;;;;;;4.13;3.13;;;15.60;79.40;;;;;;5036594;28;20540;-89
2022/08/11 01:35:15;;;;;;;4.10;3.08;;;15.50;79.40;;;;;;5036482;28;20685;-89
2022/08/11 01:37:57;;;;;;;6.85;3.60;;;15.50;79.30;;;;;;5036540;28;20172;-90
2022/08/11 01:40:55;;;;;;;10.18;3.33;;;15.50;79.30;;;;;;5054309;28;20157;-90
2022/08/11 01:46:42;;;;;;;5.75;3.50;;;15.40;79.40;;;;;;5054210;28;20572;-89
2022/08/11 01:49:23;;;;;;;5.28;3.63;;;15.30;79.50;;;;;;5036362;28;20242;-89
2022/08/11 01:51:52;;;;;;;4.85;3.70;;;15.30;79.70;;;;;;5036336;28;20247;-90
2022/08/11 01:54:29;;;;;;;4.22;3.80;;;15.30;79.80;;;;;;5036192;28;20576;-90
2022/08/11 01:57:24;;;;;;;5.25;3.90;;;15.30;79.80;;;;;;5036613;28;20596;-90
2022/08/11 01:59:55;;;;;;;5.05;3.60;;;15.20;80.10;;;;;;5036553;28;20168;-91
2022/08/11 02:02:57;;;;;;;14.82;4.63;;;15.30;80.30;;;;;;5036499;28;20374;-90
2022/08/11 02:05:45;;;;;;;6.80;4.68;;;15.20;80.50;;;;;;5036152;28;20207;-90
2022/08/11 02:08:29;;;;;;;5.30;4.40;;;15.20;81.30;;;;;;5036599;28;20274;-90
2022/08/11 02:11:29;;;;;;;4.63;4.10;;;15.20;81.80;;;;;;5036222;28;20180;-90
2022/08/11 02:14:19;;;;;;;6.65;4.63;;;15.10;81.90;;;;;;5037157;28;20164;-90
2022/08/11 02:16:54;;;;;;;8.35;4.68;;;15.00;82.10;;;;;;5053829;28;20164;-90
2022/08/11 02:25:40;;;;;;;7.40;4.22;;;15.00;82.80;;;;;;5054006;28;20264;-90
2022/08/11 02:28:27;;;;;;;7.43;4.10;;;14.90;82.50;;;;;;5053891;28;20156;-91
2022/08/11 02:34:27;;;;;;;6.90;3.93;;;14.80;82.60;;;;;;5054188;28;20633;-90
2022/08/11 02:37:17;;;;;;;4.97;3.47;;;14.80;82.60;;;;;;5036001;28;20171;-89
2022/08/11 02:39:49;;;;;;;6.43;3.53;;;14.80;82.30;;;;;;5035698;28;20179;-91
2022/08/11 02:42:45;;;;;;;5.07;3.90;;;14.80;82.10;;;;;;5035708;28;20228;-90
2022/08/11 02:45:11;;;;;;;5.30;3.33;;;14.70;82.30;;;;;;5053473;28;20207;-90
2022/08/11 02:51:22;;;;;;;6.37;3.97;;;14.70;82.20;;;;;;5053787;28;20183;-90
2022/08/11 02:54:06;;;;;;;6.27;3.67;;;14.70;81.90;;;;;;5035296;28;20602;-89
2022/08/11 02:56:50;;;;;;;7.40;3.60;;;14.70;81.60;;;;;;5035256;28;20195;-89
2022/08/11 03:02:22;;;;;;;6.82;3.53;;;14.60;81.30;;;;;;5053860;28;20533;-90
2022/08/11 03:04:59;;;;;;;4.38;3.45;;;14.60;81.10;;;;;;5036698;28;20214;-90
2022/08/11 03:07:34;;;;;;;7.47;3.50;;;14.60;81.00;;;;;;5039645;28;20198;-89
2022/08/11 03:10:12;;;;;;;3.80;3.50;;;14.60;80.90;;;;;;5039524;28;20176;-89
2022/08/11 03:18:56;;;;;;;3.80;3.47;;;14.50;80.70;;;;;;5057371;28;20171;-90
2022/08/11 03:21:33;;;;;;;7.97;4.03;;;14.50;80.70;;;;;;5039309;28;20639;-89
2022/08/11 03:24:18;;;;;;;6.17;4.23;;;14.50;80.70;;;;;;5039057;28;20202;-90
2022/08/11 03:27:01;;;;;;;6.53;3.83;;;14.50;80.90;;;;;;5039382;28;20191;-90
2022/08/11 03:29:43;;;;;;;3.92;3.45;;;14.50;81.00;;;;;;5038810;28;20684;-90
2022/08/11 03:32:31;;;;;;;4.80;3.80;;;14.50;81.10;;;;;;5039169;28;20539;-90
2022/08/11 03:35:02;;;;;;;8.50;3.50;;;14.40;81.30;;;;;;5057468;28;20246;-90
2022/08/11 03:37:55;;;;;;;4.30;3.90;;;14.40;81.30;;;;;;5039347;28;20191;-90
2022/08/11 03:44:05;;;;;;;6.03;3.70;;;14.30;81.50;;;;;;5057252;28;20727;-90
2022/08/11 03:46:44;;;;;;;8.07;4.83;;;14.30;81.90;;;;;;5039103;28;20699;-90
2022/08/11 03:49:24;;;;;;;5.93;5.03;;;14.30;82.80;;;;;;5038944;28;20176;-90
2022/08/11 03:51:57;;;;;;;6.13;5.40;;;14.30;83.50;;;;;;5039305;28;20633;-90
2022/08/11 03:54:42;;;;;;;8.33;4.90;;;14.30;84.00;;;;;;5039004;28;20213;-90
2022/08/11 03:57:38;;;;;;;8.77;5.03;;;14.20;84.30;;;;;;5038734;28;20222;-91
2022/08/11 04:00:10;;;;;;;8.63;5.10;;;14.20;84.80;;;;;;5039918;28;20160;-90
2022/08/11 04:03:09;;;;;;;8.17;4.70;;;14.10;85.30;;;;;;5038469;28;20175;-89
2022/08/11 04:05:58;;;;;;;6.67;4.63;;;14.00;85.40;;;;;;5038587;28;20294;-89
2022/08/11 04:08:58;;;;;;;11.27;5.03;;;14.10;85.90;;;;;;5056433;28;20161;-90
2022/08/11 04:11:40;;;;;;;7.07;5.00;;;14.10;85.70;;;;;;5014017;28;20188;-90
2022/08/11 04:18:22;;;;;;;5.63;4.60;;;14.20;85.80;;;;;;4995848;28;20186;-90
2022/08/11 04:20:59;;;;;;;12.63;4.77;;;14.10;85.80;;;;;;5006041;28;20290;-90
2022/08/11 04:24:03;;;;;;;9.70;5.00;;;14.00;86.10;;;;;;5038200;28;20278;-90
2022/08/11 04:27:02;;;;;;;6.60;5.10;;;13.90;86.10;;;;;;5038083;28;20298;-90
2022/08/11 04:29:30;;;;;;;11.97;5.57;;;13.90;86.40;;;;;;5037925;28;20168;-90
2022/08/11 04:32:14;;;;;;;10.27;5.10;;;13.80;86.60;;;;;;5037974;28;20172;-90
2022/08/11 04:34:57;;;;;;;9.47;5.50;;;13.90;86.80;;;;;;5037980;28;20191;-90
2022/08/11 04:38:05;;;;;;;8.40;5.67;;;14.00;86.90;;;;;;5038359;28;20165;-90
2022/08/11 04:41:13;;;;;;;12.83;5.73;;;14.00;87.00;;;;;;4975494;28;20182;-90
2022/08/11 04:44:00;;;;;;;7.40;5.03;;;14.00;86.90;;;;;;4975466;28;20186;-90
2022/08/11 04:46:49;;;;;;;14.03;5.07;;;14.10;86.90;;;;;;5030380;28;20203;-89
2022/08/11 05:01:50;;;;;;;6.50;4.53;;;14.40;86.80;;;;;;5073019;28;20162;-91
2022/08/11 05:08:09;;;;;;;4.57;3.87;;;14.60;86.70;;;;;;5037265;28;20201;-89
2022/08/11 05:10:52;;;;;;;6.67;4.30;;;14.60;86.50;;;;;;5038947;28;20603;-89
2022/08/11 05:37:02;;;;;;;7.28;5.47;;;15.90;87.20;;;;;;5068676;28;20199;-92
2022/08/11 05:56:46;;;;;;;7.25;4.30;;;16.70;86.60;;;;;;5059328;28;20190;-90
2022/08/11 05:59:15;;;;;;;9.98;4.93;;;16.80;86.10;;;;;;5039355;28;20168;-90
2022/08/11 06:01:42;;;;;;;8.30;5.07;;;16.90;85.50;;;;;;5037864;28;20190;-90
2022/08/11 06:04:17;;;;;;;9.63;5.32;;;17.00;85.40;;;;;;5036763;28;20196;-91
2022/08/11 06:06:59;;;;;;;6.10;4.53;;;17.10;84.80;;;;;;5037356;28;20568;-91
2022/08/11 06:09:43;;;;;;;9.52;4.70;;;17.30;84.50;;;;;;5056447;28;20156;-90
2022/08/11 06:12:22;;;;;;;9.68;5.20;;;17.30;83.80;;;;;;5039010;28;20614;-92
2022/08/11 06:14:52;;;;;;;7.38;4.93;;;17.50;84.10;;;;;;5037495;28;20302;-90
2022/08/11 06:17:30;;;;;;;8.40;4.90;;;17.50;83.90;;;;;;5037807;28;20164;-89
2022/08/11 06:20:11;;;;;;;8.20;4.28;;;17.60;83.40;;;;;;5054866;28;20224;-90
2022/08/11 06:22:41;;;;;;;6.68;4.93;;;17.70;83.00;;;;;;5055393;28;20160;-90
2022/08/11 06:25:08;;;;;;;11.18;5.95;;;17.80;82.70;;;;;;5037154;28;20220;-90
2022/08/11 06:27:36;;;;;;;6.63;4.63;;;17.80;82.20;;;;;;5036830;28;20164;-90
2022/08/11 06:30:12;;;;;;;9.77;4.38;;;17.90;82.40;;;;;;5036997;28;20168;-90
2022/08/11 06:32:44;;;;;;;9.68;4.68;;;18.00;82.20;;;;;;5037235;28;20618;-90
2022/08/11 06:35:18;;;;;;;9.38;4.68;;;18.20;82.00;;;;;;5036700;28;20330;-90
2022/08/11 06:37:48;;;;;;;7.95;4.68;;;18.20;82.00;;;;;;5055112;28;20175;-90
2022/08/11 06:40:32;;;;;;;7.72;4.90;;;18.30;81.20;;;;;;5036392;28;20180;-90
2022/08/11 06:43:15;;;;;;;11.05;4.68;;;18.50;81.00;;;;;;5037351;28;20256;-90
2022/08/11 06:46:08;;;;;;;9.82;4.15;;;18.70;80.60;;;;;;5036522;28;20196;-90
2022/08/11 06:48:38;;;;;;;15.38;4.28;;;18.80;80.10;;;;;;5054530;28;20513;-90
2022/08/11 06:51:13;;;;;;;6.53;4.15;;;18.90;79.30;;;;;;5036843;28;20585;-90
2022/08/11 06:54:00;;;;;;;9.35;3.92;;;19.10;79.00;;;;;;5036853;28;20171;-90
2022/08/11 07:02:05;;;;;;;11.52;4.07;;;19.60;78.00;;;;;;5055037;28;20171;-90
2022/08/11 07:04:42;;;;;;;4.53;3.40;;;19.70;77.00;;;;;;5054302;28;20198;-90
2022/08/11 07:16:06;;;;;;;12.20;3.35;;;20.30;73.00;;;;;;5054304;28;20245;-90
2022/08/11 07:30:18;;;;;;;6.03;2.85;;;20.70;69.10;;;;;;5012399;28;20285;-89
2022/08/11 07:32:50;;;;;;;7.95;3.05;;;20.70;68.60;;;;;;4995586;28;20170;-89
2022/08/11 07:35:20;;;;;;;9.50;3.10;;;20.80;69.30;;;;;;5031975;28;20207;-89
2022/08/11 07:37:49;;;;;;;10.77;3.30;;;20.90;70.00;;;;;;5036094;28;20537;-89
2022/08/11 07:40:21;;;;;;;6.22;3.22;;;20.90;70.00;;;;;;5035729;28;20200;-89
2022/08/11 07:42:48;;;;;;;3.75;2.80;;;20.90;69.80;;;;;;5035988;28;20175;-89
2022/08/11 07:53:30;;;;;;;8.85;3.25;;;21.20;70.10;;;;;;5057568;28;20171;-89
2022/08/11 07:55:59;;;;;;;5.63;3.30;;;21.20;69.90;;;;;;5039932;28;20325;-89
2022/08/11 08:17:56;;;;;;;6.28;3.03;;;22.20;67.60;;;;;;5057326;28;20654;-89
2022/08/11 08:20:36;;;;;;;10.88;2.70;;;22.30;65.10;;;;;;5056993;28;20176;-89
2022/08/11 08:23:03;;;;;;;8.65;2.70;;;22.40;66.00;;;;;;5057023;28;20167;-89
2022/08/11 08:25:32;;;;;;;8.82;2.80;;;22.40;67.60;;;;;;5039032;28;20219;-89
2022/08/11 08:27:59;;;;;;;8.65;2.70;;;22.50;65.00;;;;;;5039030;28;20602;-89
2022/08/11 08:33:14;;;;;;;9.65;3.55;;;22.80;65.70;;;;;;5057836;28;20159;-91
2022/08/11 08:35:41;;;;;;;13.45;3.03;;;23.10;65.00;;;;;;5038420;28;20278;-90
2022/08/11 08:38:07;;;;;;;7.38;2.75;;;23.20;64.40;;;;;;5038462;28;20176;-90
2022/08/11 08:40:33;;;;;;;8.30;3.63;;;23.20;63.40;;;;;;5038474;28;20171;-90
2022/08/11 08:43:06;;;;;;;9.38;2.85;;;23.30;63.30;;;;;;5039085;28;20172;-90
2022/08/11 08:45:34;;;;;;;7.10;2.70;;;23.50;63.00;;;;;;5038330;28;20204;-90
2022/08/11 08:48:03;;;;;;;7.72;3.13;;;23.70;60.00;;;;;;5038491;28;20222;-91
2022/08/11 08:53:27;;;;;;;10.65;2.65;;;24.20;59.20;;;;;;5057008;28;20181;-87
2022/08/11 08:55:55;;;;;;;11.43;2.80;;;24.20;56.70;;;;;;5038113;28;20218;-86
2022/08/11 08:58:23;;;;;;;9.18;2.53;;;24.30;56.80;;;;;;5056568;28;20168;-87
2022/08/11 09:00:51;;;;;;;7.15;2.70;;;24.50;55.70;;;;;;5056102;28;20630;-86
2022/08/11 09:03:18;;;;;;;11.95;2.58;;;24.70;54.40;;;;;;5054472;28;20180;-86
2022/08/11 09:05:44;;;;;;;4.43;2.90;;;24.90;55.00;;;;;;5037515;28;20203;-86
2022/08/11 09:08:10;;;;;;;5.72;2.40;;;25.10;54.40;;;;;;5037783;28;20239;-85
2022/08/11 09:10:37;;;;;;;15.23;3.28;;;25.30;53.00;;;;;;5056358;28;20257;-84
2022/08/11 09:13:05;;;;;;;5.57;2.50;;;25.30;51.60;;;;;;5037996;28;20268;-84
2022/08/11 09:15:31;;;;;;;3.53;2.33;;;25.40;52.20;;;;;;5055524;28;20219;-85
2022/08/11 09:18:04;;;;;;;8.65;2.58;;;25.60;51.10;;;;;;5055817;28;20176;-85
2022/08/11 09:20:33;;;;;;;4.40;2.00;;;25.70;49.40;;;;;;5037833;28;20172;-85
2022/08/11 09:28:35;;;;;;;9.23;2.13;;;25.90;49.00;;;;;;5055722;28;20167;-85
2022/08/11 09:31:02;;;;;;;9.70;1.80;;;26.10;48.40;;;;;;5037523;28;20259;-84
2022/08/11 09:33:29;;;;;;;9.85;1.98;;;26.20;47.80;;;;;;5055177;28;20634;-83
2022/08/11 09:35:56;;;;;;;2.08;1.60;;;26.20;46.40;;;;;;5037323;28;20203;-84
2022/08/11 09:41:11;;;;;;;4.75;1.70;;;26.20;46.50;;;;;;5055398;28;20170;-84
2022/08/11 09:46:29;;;;;;;11.43;1.98;;;26.40;45.60;;;;;;5055607;28;20198;-83
2022/08/11 09:48:58;;;;;;;5.28;1.75;;;26.60;47.30;;;;;;5055276;28;20176;-83
2022/08/11 09:51:28;;;;;;;2.45;1.13;;;26.60;45.20;;;;;;5055059;28;20321;-83
2022/08/11 09:53:54;;;;;;;2.03;1.60;;;26.70;44.30;;;;;;5037256;28;20172;-84
2022/08/11 09:59:08;;;;;;;1.75;1.60;;;26.90;46.70;;;;;;5054907;28;20258;-83
2022/08/11 10:01:41;;;;;;;6.95;1.65;;;27.10;45.20;;;;;;5054705;28;20211;-83
2022/08/11 10:04:20;;;;;;;2.67;1.50;;;26.90;44.10;;;;;;5037433;28;20203;-84
2022/08/11 10:07:03;;;;;;;2.70;1.60;;;26.90;44.90;;;;;;5054966;28;20338;-83
2022/08/11 10:10:11;;;;;;;5.40;1.65;;;27.10;45.60;;;;;;5055021;28;20148;-83
2022/08/11 10:12:46;;;;;;;4.07;1.60;;;27.20;46.60;;;;;;5050516;28;20184;-83
2022/08/11 10:15:37;;;;;;;7.32;1.30;;;27.30;44.60;;;;;;5036549;28;20202;-85
2022/08/11 10:21:02;;;;;;;4.28;1.70;;;27.70;44.00;;;;;;5055051;28;20206;-83
2022/08/11 10:33:58;;;;;;;2.65;1.45;;;27.60;43.00;;;;;;5054264;28;20241;-83
2022/08/11 10:34:39;;;;;;;4.07;1.60;;;27.90;42.90;;;;;;5055378;28;20213;-84
2022/08/11 10:37:05;;;;;;;5.95;1.80;;;28.20;43.50;;;;;;5038216;28;20165;-82
2022/08/11 10:39:31;;;;;;;6.72;1.90;;;28.50;43.80;;;;;;5058399;28;20178;-83
2022/08/11 10:44:51;;;;;;;4.95;1.90;;;28.50;42.90;;;;;;5060021;28;20239;-84
2022/08/11 10:47:38;;;;;;;3.50;1.77;;;28.30;41.70;;;;;;5060547;28;20255;-82
2022/08/11 10:58:48;;;;;;;5.15;1.75;;;28.00;42.30;;;;;;5061936;28;20271;-83
2022/08/11 11:01:15;;;;;;;6.57;1.63;;;27.90;40.20;;;;;;5061553;28;20601;-84
2022/08/11 11:03:41;;;;;;;4.88;1.83;;;27.80;40.80;;;;;;5061360;28;20259;-84
2022/08/11 11:06:15;;;;;;;4.05;1.38;;;27.80;42.40;;;;;;5043410;28;20586;-82
2022/08/11 11:08:54;;;;;;;4.75;1.70;;;28.10;41.90;;;;;;5043440;28;20232;-83
2022/08/11 11:17:54;;;;;;;4.20;1.90;;;28.20;41.90;;;;;;5043550;28;20170;-83
2022/08/11 11:19:56;;;;;;;3.95;1.70;;;28.50;40.80;;;;;;5031862;28;20210;-83
2022/08/11 11:22:37;;;;;;;2.88;1.35;;;28.70;39.30;;;;;;5042177;28;20187;-84
2022/08/11 11:25:24;;;;;;;3.25;1.60;;;28.70;38.70;;;;;;5060255;28;20203;-83
2022/08/11 11:28:35;;;;;;;5.13;1.50;;;28.80;39.60;;;;;;5046415;28;20168;-84
2022/08/11 11:31:21;;;;;;;9.02;1.73;;;29.00;39.60;;;;;;5063333;28;20176;-83
2022/08/11 11:34:16;;;;;;;5.45;1.98;;;29.10;40.40;;;;;;5046048;28;20213;-84
2022/08/11 11:36:52;;;;;;;4.18;2.03;;;28.70;44.20;;;;;;5045889;28;20546;-83
2022/08/11 11:39:21;;;;;;;8.25;1.98;;;28.80;42.90;;;;;;5046039;28;20220;-81
2022/08/11 11:41:50;;;;;;;3.55;1.98;;;28.50;43.50;;;;;;5045465;28;20180;-84
2022/08/11 11:44:17;;;;;;;5.53;2.15;;;28.70;43.30;;;;;;5064159;28;20263;-83
2022/08/11 11:46:44;;;;;;;3.97;2.15;;;28.90;42.90;;;;;;5045893;28;20200;-83
2022/08/11 11:49:11;;;;;;;5.75;2.00;;;29.10;43.80;;;;;;5045283;28;20178;-84
2022/08/11 11:51:37;;;;;;;12.77;2.33;;;28.80;43.80;;;;;;5063298;28;20172;-84
2022/08/11 11:54:04;;;;;;;3.15;1.92;;;28.50;46.10;;;;;;5063747;28;20172;-84
2022/08/11 11:56:30;;;;;;;3.30;1.77;;;28.80;42.70;;;;;;5063205;28;20274;-83
2022/08/11 12:01:44;;;;;;;8.68;2.38;;;28.60;44.10;;;;;;5063411;28;20183;-84
2022/08/11 12:04:12;;;;;;;6.40;2.35;;;28.40;45.60;;;;;;5063177;28;20279;-84
2022/08/11 12:06:38;;;;;;;6.55;2.30;;;28.90;45.60;;;;;;5045063;28;20195;-83
2022/08/11 12:09:04;;;;;;;9.32;2.33;;;29.00;42.70;;;;;;5046086;28;20249;-83
2022/08/11 12:14:17;;;;;;;14.40;2.22;;;29.20;44.80;;;;;;5063968;28;20163;-83
2022/08/11 12:16:45;;;;;;;3.83;1.80;;;29.90;44.10;;;;;;5062366;28;20255;-84
2022/08/11 12:19:20;;;;;;;5.70;1.92;;;30.60;41.70;;;;;;5062442;28;20176;-83
2022/08/11 12:27:20;;;;;;;9.50;2.10;;;31.50;39.00;;;;;;5057226;28;20163;-83
2022/08/11 12:29:49;;;;;;;5.82;1.63;;;31.50;38.60;;;;;;5039100;28;20263;-83
2022/08/11 12:32:15;;;;;;;7.30;1.98;;;30.00;40.20;;;;;;5038884;28;20180;-82
2022/08/11 12:34:40;;;;;;;7.60;2.05;;;29.90;41.50;;;;;;5056709;28;20589;-82
2022/08/11 12:37:11;;;;;;;3.83;1.75;;;30.20;40.90;;;;;;5056637;28;20176;-83
2022/08/11 12:45:27;;;;;;;5.15;1.60;;;31.20;35.40;;;;;;5056925;28;20250;-84
2022/08/11 12:53:58;;;;;;;4.32;1.48;;;31.00;36.00;;;;;;5058144;28;20168;-82
2022/08/11 13:04:57;;;;;;;4.97;1.50;;;31.20;38.50;;;;;;5058350;28;20219;-82
2022/08/11 13:07:25;;;;;;;5.13;1.70;;;31.30;35.80;;;;;;5058385;28;20163;-82
2022/08/11 13:09:51;;;;;;;2.65;1.20;;;31.40;34.30;;;;;;5039964;28;20229;-82
2022/08/11 13:15:03;;;;;;;6.45;1.48;;;31.70;34.60;;;;;;5057633;28;20234;-82
2022/08/11 13:17:29;;;;;;;3.70;1.40;;;31.80;33.60;;;;;;5057995;28;20176;-82
2022/08/11 13:20:01;;;;;;;6.03;1.10;;;31.90;31.90;;;;;;5058648;28;20176;-82
2022/08/11 13:22:28;;;;;;;5.63;1.40;;;32.10;34.70;;;;;;5057620;28;20172;-82
2022/08/11 13:24:56;;;;;;;4.70;1.50;;;32.30;32.60;;;;;;5057170;28;20215;-82
2022/08/11 13:27:23;;;;;;;1.58;1.20;;;31.80;33.20;;;;;;5057788;28;20579;-82
2022/08/11 13:29:52;;;;;;;5.55;1.35;;;31.20;33.30;;;;;;5039053;28;20714;-82
2022/08/11 13:32:20;;;;;;;3.25;1.30;;;31.20;34.40;;;;;;5057829;28;20179;-82
2022/08/11 13:34:46;;;;;;;7.40;2.15;;;31.30;34.30;;;;;;5057517;28;20282;-82
2022/08/11 13:37:14;;;;;;;5.22;1.75;;;31.10;33.50;;;;;;5057455;28;20168;-82
2022/08/11 13:39:45;;;;;;;6.82;1.70;;;30.70;33.80;;;;;;5039596;28;20187;-82
2022/08/11 13:42:14;;;;;;;4.45;1.27;;;30.70;34.20;;;;;;5038895;28;20516;-82
2022/08/11 13:44:41;;;;;;;2.03;1.42;;;30.70;34.00;;;;;;5039182;28;20214;-82
2022/08/11 13:47:10;;;;;;;4.85;1.42;;;30.90;33.90;;;;;;5058751;28;20171;-82
2022/08/11 13:49:39;;;;;;;4.03;1.30;;;31.10;32.90;;;;;;5058288;28;20301;-83
2022/08/11 13:52:06;;;;;;;4.93;1.63;;;31.10;34.30;;;;;;5059900;28;20173;-82
2022/08/11 13:54:37;;;;;;;8.35;1.20;;;31.30;34.80;;;;;;5040566;28;20172;-82
2022/08/11 13:57:07;;;;;;;3.20;1.40;;;31.30;34.50;;;;;;5058526;28;20156;-84
2022/08/11 13:59:34;;;;;;;3.05;1.40;;;31.50;33.80;;;;;;5058145;28;20172;-84
2022/08/11 14:02:03;;;;;;;2.85;1.15;;;31.30;32.90;;;;;;5057884;28;20183;-84
2022/08/11 14:04:38;;;;;;;1.98;1.20;;;31.00;34.00;;;;;;5057367;28;20279;-86
2022/08/11 14:07:07;;;;;;;4.55;1.40;;;30.70;34.10;;;;;;5040224;28;20176;-84
2022/08/11 14:09:36;;;;;;;2.00;1.45;;;30.70;34.10;;;;;;5057291;28;20168;-84
2022/08/11 14:15:13;;;;;;;2.50;1.20;;;30.60;34.90;;;;;;5058768;28;20237;-84
2022/08/11 14:17:40;;;;;;;2.13;1.30;;;30.50;34.90;;;;;;5058133;28;20195;-83
2022/08/11 14:20:09;;;;;;;3.55;1.30;;;30.50;34.70;;;;;;5056485;28;20544;-83
2022/08/11 14:22:40;;;;;;;2.53;1.60;;;30.20;35.40;;;;;;5038848;28;20180;-85
2022/08/11 14:25:06;;;;;;;8.57;1.30;;;30.30;36.00;;;;;;5055964;28;20369;-85
2022/08/11 14:27:32;;;;;;;8.95;1.17;;;30.40;35.20;;;;;;5056092;28;20242;-83
2022/08/11 14:29:59;;;;;;;3.78;1.70;;;30.30;35.60;;;;;;5055865;28;20589;-85
2022/08/11 14:32:25;;;;;;;2.40;1.10;;;30.50;34.80;;;;;;5038523;28;20534;-84
2022/08/11 14:34:52;;;;;;;2.95;1.25;;;30.50;35.30;;;;;;5055799;28;20195;-83
2022/08/11 14:37:22;;;;;;;4.25;1.13;;;30.60;36.70;;;;;;5056168;28;20187;-85
2022/08/11 14:39:55;;;;;;;5.32;1.60;;;30.90;33.50;;;;;;5055593;28;20199;-84
2022/08/11 14:48:07;;;;;;;2.38;1.30;;;30.50;34.20;;;;;;5055931;28;20194;-84
2022/08/11 14:50:33;;;;;;;6.43;1.42;;;30.60;35.40;;;;;;5037725;28;20160;-84
2022/08/11 14:53:06;;;;;;;2.65;1.02;;;30.50;34.90;;;;;;5055913;28;20657;-86
2022/08/11 14:58:29;;;;;;;3.55;0.93;;;31.10;33.50;;;;;;5056017;28;20167;-85
2022/08/11 15:01:00;;;;;;;2.08;0.90;;;31.10;34.90;;;;;;5038549;28;20180;-86
2022/08/11 15:03:29;;;;;;;2.25;1.00;;;30.90;33.80;;;;;;5041769;28;20270;-86
2022/08/11 15:06:01;;;;;;;2.17;1.23;;;30.70;34.10;;;;;;5041414;28;20192;-84
2022/08/11 15:14:07;;;;;;;4.18;1.15;;;30.20;34.60;;;;;;5059421;28;20255;-83
2022/08/11 15:19:20;;;;;;;1.95;1.23;;;30.00;34.40;;;;;;5059956;28;20172;-88
2022/08/11 15:24:32;;;;;;;2.58;1.10;;;30.00;34.60;;;;;;5061263;28;20727;-85
2022/08/11 15:38:01;;;;;;;1.83;1.10;;;30.00;34.20;;;;;;5062763;28;20166;-84
2022/08/11 15:46:16;;;;;;;1.98;1.05;;;30.10;35.70;;;;;;5062076;28;20242;-84
2022/08/11 15:48:51;;;;;;;4.90;1.23;;;30.10;35.30;;;;;;5061723;28;20164;-85
2022/08/11 15:51:39;;;;;;;2.08;1.10;;;30.00;34.70;;;;;;5042636;28;20163;-85
2022/08/11 15:54:10;;;;;;;4.18;1.25;;;30.10;35.20;;;;;;5044555;28;20576;-86
2022/08/11 15:56:41;;;;;;;5.20;1.38;;;30.10;35.20;;;;;;5060795;28;20196;-84
2022/08/11 16:04:41;;;;;;;1.77;1.10;;;29.90;35.50;;;;;;5061508;28;20195;-86
2022/08/11 16:07:13;;;;;;;2.60;1.20;;;29.90;35.60;;;;;;5060818;28;20160;-85
2022/08/11 16:09:49;;;;;;;5.45;1.60;;;29.80;34.80;;;;;;5061106;28;20611;-85
2022/08/11 16:12:36;;;;;;;5.22;1.15;;;29.80;35.10;;;;;;5041603;28;20160;-85
2022/08/11 16:17:54;;;;;;;1.10;0.93;;;29.70;35.20;;;;;;5061033;28;20167;-85
2022/08/11 16:20:23;;;;;;;5.78;1.52;;;29.70;35.10;;;;;;5043442;28;20619;-86
2022/08/11 16:22:51;;;;;;;4.53;1.23;;;29.80;35.30;;;;;;5060643;28;20172;-86
2022/08/11 16:25:21;;;;;;;4.72;1.02;;;29.70;34.50;;;;;;5058832;28;20246;-85
2022/08/11 16:27:51;;;;;;;4.13;1.38;;;29.70;36.00;;;;;;5039545;28;20171;-85
2022/08/11 16:30:17;;;;;;;4.25;1.13;;;29.60;35.30;;;;;;5057568;28;20178;-86
2022/08/11 16:32:50;;;;;;;2.80;1.00;;;29.60;34.80;;;;;;5059131;28;20168;-85
2022/08/11 16:40:51;;;;;;;2.53;1.23;;;29.40;34.50;;;;;;5060172;28;20174;-86
2022/08/11 16:48:52;;;;;;;3.95;1.10;;;29.10;34.60;;;;;;5059650;28;20171;-85
2022/08/11 16:51:19;;;;;;;2.88;1.10;;;29.10;35.60;;;;;;5041251;28;20726;-84
2022/08/11 16:53:47;;;;;;;2.67;0.93;;;29.10;36.50;;;;;;5039388;28;20183;-85
2022/08/11 16:56:23;;;;;;;2.97;1.20;;;29.30;35.30;;;;;;5038405;28;20214;-86
2022/08/11 16:59:14;;;;;;;2.88;1.55;;;29.20;35.50;;;;;;5037961;28;20199;-90
2022/08/11 17:01:41;;;;;;;7.55;1.20;;;29.00;36.30;;;;;;5038257;28;20214;-89
2022/08/11 17:18:08;;;;;;;4.55;1.30;;;28.20;40.80;;;;;;5056285;28;20182;-89
2022/08/11 17:20:37;;;;;;;4.60;1.40;;;28.10;40.90;;;;;;5037805;28;20176;-89
2022/08/11 17:25:51;;;;;;;5.20;1.50;;;27.90;41.70;;;;;;5055431;28;20215;-88
2022/08/11 17:28:18;;;;;;;1.88;1.23;;;27.70;41.70;;;;;;5037412;28;20203;-91
2022/08/11 17:36:19;;;;;;;11.45;2.05;;;27.40;43.40;;;;;;5055153;28;20195;-88
2022/08/11 17:38:46;;;;;;;2.47;1.25;;;27.30;43.60;;;;;;5036723;28;20645;-87
2022/08/11 17:49:35;;;;;;;9.20;1.50;;;26.80;44.10;;;;;;5056278;28;20545;-87
2022/08/11 18:00:21;;;;;;;5.28;1.20;;;26.30;45.20;;;;;;5055773;28;20162;-88
2022/08/11 18:05:35;;;;;;;5.85;1.45;;;26.20;45.60;;;;;;5055241;28;20577;-88
